Terminal Aerodrome Forecast
Issued by NWS Mt. Holly, NJ

Home | Current Version | Previous Version | Text Only | Print | Product List | Glossary On
Versions: 1 2 3 4 5 6 7 8 9 10 11 12 13 14
914
FTUS41 KPHI 230520
TAFILG
TAF
KILG 230520Z 2306/2406 16005KT P6SM BKN110 WS020/20035KT
     FM230900 16006KT P6SM OVC020 WS020/20035KT
      TEMPO 2309/2310 6SM -SHRA
     FM231100 17011KT 5SM SHRA OVC015 WS020/20040KT
     FM231500 20013KT 4SM SHRA OVC015 WS020/20040KT
     FM231900 24007KT P6SM VCSH BKN020
     FM232100 28012KT P6SM BKN040=

USA.gov is the U.S. government's official web portal to all federal, state and local government web resources and services.